.
WxDataArchive / Data Records for 2011-05-05
2011-05-04 May 2011 2011-05-06

Data Records for Thursday, 05 May 2011

Time	Temp	Chill	HIndex	Humid	Dewpt	 Wind 	HiWind	WindDir	Rain 	Barom 
-----	----	-----	------	-----	-----	------	------	-------	-----	----- 
00:00	43.3	43.3	43.3	68	33.5	0	0	---	0.00	30.365 
00:05	43.1	43.1	43.1	69	33.6	0	0	---	0.00	30.365 
00:10	42.8	42.8	42.8	69	33.3	0	0	---	0.00	30.365 
00:15	42.5	42.5	42.5	70	33.4	0	0	---	0.00	30.357 
00:20	42.2	42.2	42.2	71	33.5	0	0	---	0.00	30.357 
00:25	41.9	41.9	41.9	71	33.2	0	0	---	0.00	30.357 
00:30	41.8	41.8	41.8	72	33.4	0	0	---	0.00	30.360 
00:35	41.5	41.5	41.5	73	33.5	0	0	---	0.00	30.360 
00:40	41.3	41.3	41.3	73	33.3	0	0	---	0.00	30.360 
00:45	41.2	41.2	41.2	73	33.2	0	0	---	0.00	30.364 
00:50	41.1	41.1	41.1	74	33.5	0	0	---	0.00	30.364 
00:55	40.9	40.9	40.9	74	33.3	0	0	---	0.00	30.364 
01:00	40.8	40.8	40.8	75	33.5	0	0	---	0.00	30.363 
01:05	40.6	40.6	40.6	75	33.3	0	0	---	0.00	30.363 
01:10	40.6	40.6	40.6	75	33.3	0	0	---	0.00	30.363 
01:15	40.5	40.5	40.5	75	33.2	0	0	---	0.00	30.367 
01:20	40.3	40.3	40.3	76	33.3	0	0	---	0.00	30.367 
01:25	40.2	40.2	40.2	76	33.3	0	0	---	0.00	30.367 
01:30	39.9	39.9	39.9	76	33.0	0	0	---	0.00	30.365 
01:35	39.8	39.8	39.8	76	32.9	0	0	---	0.00	30.365 
01:40	39.8	39.8	39.8	77	33.2	0	0	---	0.00	30.365 
01:45	39.6	39.6	39.6	77	33.0	0	0	---	0.00	30.363 
01:50	39.6	39.6	39.6	77	33.0	0	0	---	0.00	30.363 
01:55	39.6	39.6	39.6	77	33.0	0	0	---	0.00	30.363 
02:00	39.6	39.6	39.6	77	33.0	0	0	---	0.00	30.362 
02:05	39.6	39.6	39.6	77	33.0	0	0	---	0.00	30.362 
02:10	39.6	39.6	39.6	77	33.0	0	0	---	0.00	30.362 
02:15	39.5	39.5	39.5	77	32.9	0	0	---	0.00	30.361 
02:20	39.3	39.3	39.3	77	32.7	0	0	---	0.00	30.361 
02:25	39.2	39.2	39.2	78	32.9	0	0	---	0.00	30.361 
02:30	39.1	39.1	39.1	78	32.8	0	0	---	0.00	30.362 
02:35	38.9	38.9	38.9	78	32.6	0	0	---	0.00	30.362 
02:40	38.8	38.8	38.8	79	32.9	0	0	---	0.00	30.362 
02:45	38.6	38.6	38.6	79	32.7	0	0	---	0.00	30.360 
02:50	38.5	38.5	38.5	79	32.6	0	0	---	0.00	30.360 
02:55	38.3	38.3	38.3	80	32.7	0	0	---	0.00	30.360 
03:00	38.2	38.2	38.2	80	32.6	0	0	---	0.00	30.357 
03:05	38.0	38.0	38.0	81	32.7	0	0	---	0.00	30.357 
03:10	38.0	38.0	38.0	81	32.7	0	0	---	0.00	30.357 
03:15	38.0	38.0	38.0	81	32.7	0	0	---	0.00	30.354 
03:20	37.9	37.9	37.9	81	32.6	0	0	---	0.00	30.354 
03:25	37.9	37.9	37.9	81	32.6	0	0	---	0.00	30.354 
03:30	37.8	37.8	37.8	81	32.5	0	0	---	0.00	30.352 
03:35	37.6	37.6	37.6	81	32.3	0	0	---	0.00	30.352 
03:40	37.3	37.3	37.3	81	32.0	0	0	---	0.00	30.352 
03:45	37.2	37.2	37.2	82	32.2	0	0	---	0.00	30.355 
03:50	37.0	37.0	37.0	82	32.0	0	0	---	0.00	30.355 
03:55	36.9	36.9	36.9	82	31.9	0	0	---	0.00	30.355 
04:00	36.8	36.8	36.8	83	32.1	0	0	---	0.00	30.356 
04:05	36.8	36.8	36.8	84	32.4	0	0	---	0.00	30.356 
04:10	36.9	36.9	36.9	84	32.5	0	0	---	0.00	30.356 
04:15	37.0	37.0	37.0	84	32.6	0	0	---	0.00	30.353 
04:20	37.2	37.2	37.2	84	32.8	0	0	---	0.00	30.353 
04:25	37.3	37.3	37.3	84	32.9	0	0	---	0.00	30.353 
04:30	37.5	37.5	37.5	84	33.1	0	0	---	0.00	30.349 
04:35	37.6	37.6	37.6	84	33.2	0	0	---	0.00	30.349 
04:40	37.6	37.6	37.6	83	32.9	0	0	---	0.00	30.349 
04:45	37.5	37.5	37.5	83	32.8	0	0	---	0.00	30.345 
04:50	37.3	37.3	37.3	83	32.6	0	0	---	0.00	30.345 
04:55	37.0	37.0	37.0	83	32.3	0	0	---	0.00	30.345 
05:00	36.8	36.8	36.8	83	32.1	0	0	---	0.00	30.347 
05:05	36.6	36.6	36.6	84	32.2	0	0	---	0.00	30.347 
05:10	36.5	36.5	36.5	84	32.1	0	0	---	0.00	30.347 
05:15	36.3	36.3	36.3	84	31.9	0	0	---	0.00	30.344 
05:20	36.3	36.3	36.3	84	31.9	0	0	---	0.00	30.344 
05:25	36.2	36.2	36.2	85	32.1	0	0	---	0.00	30.344 
05:30	36.0	36.0	36.0	85	31.9	0	0	---	0.00	30.346 
05:35	36.0	36.0	36.0	86	32.2	0	0	---	0.00	30.346 
05:40	36.0	36.0	36.0	86	32.2	0	0	---	0.00	30.346 
05:45	36.0	36.0	36.0	86	32.2	0	0	---	0.00	30.346 
05:50	35.9	35.9	35.9	86	32.1	0	0	---	0.00	30.346 
05:55	35.9	35.9	35.9	86	32.1	0	0	---	0.00	30.346 
06:00	35.8	35.8	35.8	86	32.0	0	0	---	0.00	30.345 
06:05	35.6	35.6	35.6	86	31.8	0	0	---	0.00	30.345 
06:10	35.5	35.5	35.5	86	31.7	0	0	---	0.00	30.345 
06:15	35.3	35.3	35.3	87	31.8	0	0	---	0.00	30.348 
06:20	35.3	35.3	35.3	87	31.8	0	0	---	0.00	30.348 
06:25	35.2	35.2	35.2	87	31.7	0	0	---	0.00	30.348 
06:30	35.0	35.0	35.0	87	31.5	0	0	---	0.00	30.348 
06:35	35.0	35.0	35.0	87	31.5	0	0	---	0.00	30.348 
06:40	34.9	34.9	34.9	88	31.7	0	0	---	0.00	30.348 
06:45	34.9	34.9	34.9	88	31.7	0	0	---	0.00	30.355 
06:50	35.0	35.0	35.0	88	31.8	0	0	---	0.00	30.355 
06:55	35.3	35.3	35.3	88	32.1	0	0	---	0.00	30.355 
07:00	35.5	35.5	35.5	88	32.3	0	0	---	0.00	30.350 
07:05	35.6	35.6	35.6	88	32.4	0	0	---	0.00	30.350 
07:10	35.9	35.9	35.9	89	33.0	0	0	---	0.00	30.350 
07:15	35.9	35.9	35.9	89	33.0	0	0	---	0.00	30.344 
07:20	36.2	36.2	36.2	88	33.0	0	1	292	0.00	30.344 
07:25	36.5	36.5	36.5	88	33.3	0	0	---	0.00	30.344 
07:30	36.6	36.6	36.6	88	33.4	0	0	---	0.00	30.341 
07:35	37.2	37.2	37.2	88	34.0	0	0	---	0.00	30.341 
07:40	38.2	38.2	38.2	88	35.0	0	0	---	0.00	30.341 
07:45	38.9	38.9	38.9	87	35.4	0	0	---	0.00	30.343 
07:50	40.2	40.2	40.2	83	35.5	0	0	---	0.00	30.343 
07:55	41.3	41.3	41.3	81	35.9	0	0	---	0.00	30.343 
08:00	42.3	42.3	42.3	79	36.3	0	0	---	0.00	30.346 
08:05	43.3	43.3	43.3	77	36.6	0	0	---	0.00	30.346 
08:10	44.1	44.1	44.1	76	37.0	0	0	---	0.00	30.346 
08:15	44.5	44.5	44.5	74	36.7	0	0	---	0.00	30.349 
08:20	44.9	44.9	44.9	72	36.4	0	0	---	0.00	30.349 
08:25	45.7	45.7	45.7	71	36.8	0	0	---	0.00	30.349 
08:30	46.2	46.2	46.2	70	37.0	0	0	---	0.00	30.352 
08:35	46.8	46.8	46.8	66	36.0	0	0	---	0.00	30.352 
08:40	47.6	47.6	47.6	63	35.6	0	1	292	0.00	30.352 
08:45	48.3	48.3	48.3	60	35.1	0	1	292	0.00	30.351 
08:50	48.9	48.9	48.9	57	34.3	0	2	292	0.00	30.351 
08:55	49.5	49.5	49.5	57	34.9	0	2	292	0.00	30.351 
09:00	49.9	49.9	49.9	57	35.3	0	2	292	0.00	30.346 
09:05	50.4	50.4	50.4	55	34.8	0	1	292	0.00	30.346 
09:10	50.8	50.8	50.8	57	36.1	0	2	292	0.00	30.346 
09:15	51.3	51.3	51.3	55	35.7	0	2	292	0.00	30.340 
09:20	51.9	51.9	51.9	54	35.8	0	2	270	0.00	30.340 
09:25	52.2	52.2	52.2	53	35.6	1	2	270	0.00	30.340 
09:30	52.0	52.0	52.0	52	34.9	1	2	270	0.00	30.338 
09:35	52.3	52.3	52.3	53	35.7	1	3	270	0.00	30.338 
09:40	52.6	52.6	52.6	53	36.0	0	2	270	0.00	30.338 
09:45	53.2	53.2	53.2	54	37.0	0	2	270	0.00	30.334 
09:50	53.6	53.6	53.6	51	35.9	0	2	270	0.00	30.334 
09:55	53.9	53.9	53.9	50	35.7	0	2	270	0.00	30.334 
10:00	54.1	54.1	54.1	52	36.9	0	1	270	0.00	30.332 
10:05	54.4	54.4	54.4	52	37.1	0	3	270	0.00	30.332 
10:10	54.5	54.5	54.5	51	36.7	1	3	270	0.00	30.332 
10:15	55.0	55.0	55.0	50	36.7	0	2	270	0.00	30.324 
10:20	55.1	55.1	55.1	47	35.2	1	3	270	0.00	30.324 
10:25	55.3	55.3	55.3	48	35.9	0	2	270	0.00	30.324 
10:30	55.4	55.4	55.4	48	36.0	1	3	270	0.00	30.322 
10:35	55.7	55.7	55.7	47	35.8	1	3	270	0.00	30.322 
10:40	56.0	56.0	56.0	47	36.1	1	3	248	0.00	30.322 
10:45	56.0	56.0	56.0	47	36.1	1	3	248	0.00	30.318 
10:50	56.0	56.0	56.0	46	35.5	1	3	248	0.00	30.318 
10:55	56.2	56.2	56.2	46	35.7	1	4	248	0.00	30.318 
11:00	56.7	56.7	56.7	45	35.6	0	2	112	0.00	30.302 
11:05	57.5	57.5	57.5	46	36.9	0	2	112	0.00	30.302 
11:10	58.1	58.1	58.1	46	37.4	1	5	248	0.00	30.302 
11:15	58.0	58.0	58.0	46	37.3	1	3	225	0.00	30.301 
11:20	58.1	58.1	58.1	42	35.1	2	6	112	0.00	30.301 
11:25	58.4	58.4	58.4	42	35.4	1	4	248	0.00	30.301 
11:30	58.6	58.6	58.6	42	35.6	2	6	90	0.00	30.294 
11:35	58.4	58.4	58.4	42	35.4	1	4	248	0.00	30.294 
11:40	58.7	58.7	58.7	41	35.1	2	5	112	0.00	30.294 
11:45	58.7	58.7	58.7	42	35.7	2	5	248	0.00	30.291 
11:50	58.4	58.4	58.4	43	36.0	1	3	248	0.00	30.291 
11:55	58.4	58.4	58.4	42	35.4	1	6	248	0.00	30.291 
12:00	58.9	58.9	58.9	42	35.9	1	5	90	0.00	30.293 
12:05	58.9	58.9	58.9	41	35.2	2	7	248	0.00	30.293 
12:10	58.9	58.9	58.9	40	34.6	2	5	248	0.00	30.293 
12:15	59.3	59.3	59.3	44	37.4	2	6	248	0.00	30.289 
12:20	59.5	59.5	59.5	38	33.9	2	5	270	0.00	30.289 
12:25	59.3	59.3	59.3	39	34.3	2	7	248	0.00	30.289 
12:30	59.2	59.2	59.2	42	36.1	2	6	248	0.00	30.282 
12:35	59.8	59.8	59.8	40	35.4	1	6	90	0.00	30.282 
12:40	60.4	60.4	60.4	42	37.2	1	4	90	0.00	30.282 
12:45	60.4	60.4	60.4	40	36.0	2	7	270	0.00	30.274 
12:50	60.5	60.5	60.5	36	33.4	2	5	248	0.00	30.274 
12:55	60.9	60.9	60.9	42	37.7	1	5	248	0.00	30.274 
13:00	60.7	60.7	60.7	37	34.3	1	5	248	0.00	30.258 
13:05	61.0	61.0	61.0	35	33.2	2	6	248	0.00	30.258 
13:10	60.9	60.9	60.9	36	33.8	2	5	248	0.00	30.258 
13:15	61.5	61.5	61.5	40	37.0	1	5	90	0.00	30.250 
13:20	62.0	62.0	62.0	40	37.4	1	4	270	0.00	30.250 
13:25	61.8	61.8	61.8	38	35.9	1	6	270	0.00	30.250 
13:30	61.6	61.6	61.6	38	35.7	2	5	248	0.00	30.238 
13:35	62.0	62.0	62.0	42	38.6	1	6	248	0.00	30.238 
13:40	62.1	62.1	62.1	36	34.8	2	7	248	0.00	30.238 
13:45	62.3	62.3	62.3	35	34.3	1	4	248	0.00	30.225 
13:50	62.6	62.6	62.6	34	33.8	1	5	248	0.00	30.225 
13:55	63.1	63.1	63.1	34	34.3	1	4	248	0.00	30.225 
14:00	62.6	62.6	62.6	35	34.6	2	6	90	0.00	30.210 
14:05	62.4	62.4	62.4	36	35.1	2	5	248	0.00	30.210 
14:10	62.6	62.6	62.6	37	36.0	1	5	315	0.00	30.210 
14:15	62.7	62.7	62.7	37	36.0	2	6	248	0.00	30.208 
14:20	62.7	62.7	62.7	39	37.4	1	4	90	0.00	30.208 
14:25	62.7	62.7	62.7	38	36.7	2	4	112	0.00	30.208 
14:30	62.7	62.7	62.7	34	33.9	2	4	270	0.00	30.197 
14:35	63.1	63.1	63.1	35	35.0	1	5	68	0.00	30.197 
14:40	63.1	63.1	63.1	30	31.2	2	6	68	0.00	30.197 
14:45	63.1	63.1	63.1	39	37.7	2	6	248	0.00	30.194 
14:50	63.1	63.1	63.1	36	35.7	2	5	135	0.00	30.194 
14:55	62.9	62.9	62.9	32	32.6	2	4	248	0.00	30.194 
15:00	62.9	62.9	62.9	34	34.1	2	5	90	0.00	30.181 
15:05	62.7	62.7	62.7	33	33.2	2	5	112	0.00	30.181 
15:10	62.9	62.9	62.9	31	31.8	2	9	248	0.00	30.181 
15:15	63.2	63.2	63.2	36	35.8	1	4	248	0.00	30.175 
15:20	63.4	63.4	63.4	31	32.2	2	7	270	0.00	30.175 
15:25	63.5	63.5	63.5	36	36.1	2	6	292	0.00	30.175 
15:30	63.7	63.7	63.7	33	34.1	2	5	248	0.00	30.166 
15:35	63.5	63.5	63.5	31	32.3	2	6	112	0.00	30.166 
15:40	63.5	63.5	63.5	32	33.1	2	4	270	0.00	30.166 
15:45	63.5	63.5	63.5	34	34.6	2	7	112	0.00	30.158 
15:50	63.5	63.5	63.5	31	32.3	2	5	90	0.00	30.158 
15:55	63.4	63.4	63.4	31	32.2	2	5	112	0.00	30.158 
16:00	63.7	63.7	63.7	35	35.5	1	3	248	0.00	30.148 
16:05	64.2	64.2	64.2	30	32.1	2	6	270	0.00	30.148 
16:10	64.5	64.5	64.5	33	34.8	1	6	45	0.00	30.148 
16:15	64.8	64.8	64.8	29	31.8	2	6	248	0.00	30.134 
16:20	65.0	65.0	65.0	31	33.6	2	7	270	0.00	30.134 
16:25	64.3	64.3	64.3	29	31.4	2	5	270	0.00	30.134 
16:30	64.3	64.3	64.3	35	36.1	0	3	90	0.00	30.127 
16:35	64.5	64.5	64.5	30	32.4	1	5	248	0.00	30.127 
16:40	64.5	64.5	64.5	31	33.2	1	4	248	0.00	30.127 
16:45	64.5	64.5	64.5	31	33.2	2	6	225	0.00	30.116 
16:50	64.3	64.3	64.3	29	31.4	3	6	248	0.00	30.116 
16:55	64.3	64.3	64.3	32	33.8	2	5	270	0.00	30.116 
17:00	63.9	63.9	63.9	32	33.5	2	7	248	0.00	30.104 
17:05	63.4	63.4	63.4	31	32.2	1	5	338	0.00	30.104 
17:10	63.2	63.2	63.2	32	32.9	2	5	248	0.00	30.104 
17:15	62.9	62.9	62.9	30	31.0	1	4	248	0.00	30.102 
17:20	62.7	62.7	62.7	33	33.2	1	5	292	0.00	30.102 
17:25	62.4	62.4	62.4	33	32.9	2	5	90	0.00	30.102 
17:30	62.1	62.1	62.1	35	34.1	1	5	90	0.00	30.096 
17:35	62.0	62.0	62.0	33	32.6	2	5	270	0.00	30.096 
17:40	61.8	61.8	61.8	32	31.6	2	6	270	0.00	30.096 
17:45	61.6	61.6	61.6	35	33.7	1	7	112	0.00	30.088 
17:50	61.3	61.3	61.3	36	34.1	1	3	112	0.00	30.088 
17:55	61.3	61.3	61.3	37	34.8	1	4	112	0.00	30.088 
18:00	61.5	61.5	61.5	35	33.6	1	4	112	0.00	30.084 
18:05	61.5	61.5	61.5	37	35.0	1	3	270	0.00	30.084 
18:10	61.5	61.5	61.5	36	34.3	1	5	270	0.00	30.084 
18:15	61.5	61.5	61.5	35	33.6	1	3	248	0.00	30.081 
18:20	61.2	61.2	61.2	33	31.9	2	4	225	0.00	30.081 
18:25	61.0	61.0	61.0	35	33.2	0	2	158	0.00	30.081 
18:30	60.9	60.9	60.9	37	34.5	1	4	270	0.00	30.076 
18:35	60.7	60.7	60.7	37	34.3	1	4	22	0.00	30.076 
18:40	60.5	60.5	60.5	41	36.7	0	4	22	0.00	30.076 
18:45	60.4	60.4	60.4	36	33.3	2	6	248	0.00	30.072 
18:50	60.5	60.5	60.5	37	34.1	1	4	270	0.00	30.072 
18:55	60.5	60.5	60.5	37	34.1	1	4	248	0.00	30.072 
19:00	60.4	60.4	60.4	37	34.0	1	4	248	0.00	30.070 
19:05	60.4	60.4	60.4	39	35.3	0	1	135	0.00	30.070 
19:10	60.2	60.2	60.2	37	33.8	1	5	248	0.00	30.070 
19:15	60.1	60.1	60.1	37	33.7	1	4	270	0.00	30.058 
19:20	60.1	60.1	60.1	37	33.7	1	4	270	0.00	30.058 
19:25	60.1	60.1	60.1	39	35.1	0	1	225	0.00	30.058 
19:30	59.8	59.8	59.8	38	34.1	0	2	225	0.00	30.054 
19:35	59.6	59.6	59.6	36	32.6	1	4	225	0.00	30.054 
19:40	59.6	59.6	59.6	37	33.3	0	2	248	0.00	30.054 
19:45	59.5	59.5	59.5	38	33.9	0	3	248	0.00	30.052 
19:50	59.3	59.3	59.3	39	34.3	0	0	---	0.00	30.052 
19:55	59.3	59.3	59.3	41	35.6	0	1	248	0.00	30.052 
20:00	59.2	59.2	59.2	40	34.9	0	1	248	0.00	30.051 
20:05	59.0	59.0	59.0	39	34.1	1	4	248	0.00	30.051 
20:10	59.0	59.0	59.0	38	33.4	1	4	248	0.00	30.051 
20:15	59.2	59.2	59.2	38	33.6	1	5	270	0.00	30.042 
20:20	59.2	59.2	59.2	39	34.3	1	3	248	0.00	30.042 
20:25	59.0	59.0	59.0	40	34.7	0	2	248	0.00	30.042 
20:30	58.9	58.9	58.9	39	34.0	0	2	248	0.00	30.032 
20:35	58.9	58.9	58.9	39	34.0	0	3	248	0.00	30.032 
20:40	58.7	58.7	58.7	40	34.4	0	1	248	0.00	30.032 
20:45	58.4	58.4	58.4	40	34.2	0	1	248	0.00	30.022 
20:50	58.1	58.1	58.1	43	35.7	0	1	248	0.00	30.022 
20:55	57.8	57.8	57.8	43	35.5	0	1	248	0.00	30.022 
21:00	57.5	57.5	57.5	43	35.2	0	0	---	0.00	30.019 
21:05	57.3	57.3	57.3	44	35.6	0	0	---	0.00	30.019 
21:10	57.0	57.0	57.0	44	35.3	0	0	---	0.00	30.019 
21:15	56.7	56.7	56.7	44	35.0	0	0	---	0.00	30.014 
21:20	56.6	56.6	56.6	44	34.9	0	1	248	0.00	30.014 
21:25	56.5	56.5	56.5	45	35.4	0	0	---	0.00	30.014 
21:30	56.2	56.2	56.2	45	35.1	0	0	---	0.00	30.014 
21:35	56.0	56.0	56.0	46	35.5	0	0	---	0.00	30.014 
21:40	55.7	55.7	55.7	46	35.2	0	0	---	0.00	30.014 
21:45	55.6	55.6	55.6	46	35.2	0	0	---	0.00	30.015 
21:50	55.3	55.3	55.3	49	36.5	0	0	---	0.00	30.015 
21:55	55.1	55.1	55.1	50	36.8	0	0	---	0.00	30.015 
22:00	55.0	55.0	55.0	50	36.7	0	0	---	0.00	30.012 
22:05	54.7	54.7	54.7	51	36.9	0	0	---	0.00	30.012 
22:10	54.4	54.4	54.4	53	37.6	0	0	---	0.00	30.012 
22:15	54.2	54.2	54.2	53	37.4	0	0	---	0.00	30.012 
22:20	53.9	53.9	53.9	54	37.6	0	0	---	0.00	30.012 
22:25	53.6	53.6	53.6	55	37.8	0	0	---	0.00	30.012 
22:30	53.5	53.5	53.5	55	37.7	0	0	---	0.00	30.011 
22:35	53.2	53.2	53.2	57	38.4	0	0	---	0.00	30.011 
22:40	52.9	52.9	52.9	58	38.5	0	0	---	0.00	30.011 
22:45	52.8	52.8	52.8	58	38.4	0	0	---	0.00	30.002 
22:50	52.5	52.5	52.5	58	38.2	0	0	---	0.00	30.002 
22:55	52.3	52.3	52.3	60	38.8	0	0	---	0.00	30.002 
23:00	52.2	52.2	52.2	61	39.2	0	0	---	0.00	29.998 
23:05	52.0	52.0	52.0	61	39.0	0	0	---	0.00	29.998 
23:10	52.0	52.0	52.0	60	38.5	0	0	---	0.00	29.998 
23:15	51.9	51.9	51.9	61	38.9	0	0	---	0.00	29.991 
23:20	51.9	51.9	51.9	60	38.5	0	0	---	0.00	29.991 
23:25	51.7	51.7	51.7	60	38.3	0	0	---	0.00	29.991 
23:30	51.7	51.7	51.7	61	38.7	0	0	---	0.00	29.990 
23:35	51.7	51.7	51.7	61	38.7	0	0	---	0.00	29.990 
23:40	51.7	51.7	51.7	60	38.3	0	0	---	0.00	29.990 
23:45	51.7	51.7	51.7	61	38.7	0	0	---	0.00	29.985 
23:50	51.7	51.7	51.7	62	39.1	0	0	---	0.00	29.985 
23:55	51.7	51.7	51.7	63	39.5	0	0	---	0.00	29.985 

CoCoRaHS
IN-AL-39
A2 Web Hosting
Creative Commons License
GoDaddy
search engine by freefind advanced

loaded 2018-11-13 21:18:24 • last modified 2010-11-18 10:43:29
Privacy PolicyDisclaimer
• wx.awcolley.com is powered by PmWiki v.2002016 •
• all content (unless otherwise noted) © 2018 A W Colley